sensor_id;sensor_type;location;lat;lon;timestamp;P1;durP1;ratioP1;P2;durP2;ratioP2
32138;SDS011;18644;48.700;9.210;2022-11-02T00:01:20;1.40;;;0.88;;
32138;SDS011;18644;48.700;9.210;2022-11-02T00:03:51;1.50;;;1.10;;
32138;SDS011;18644;48.700;9.210;2022-11-02T00:06:18;0.80;;;0.80;;
32138;SDS011;18644;48.700;9.210;2022-11-02T00:08:45;1.38;;;1.10;;
32138;SDS011;18644;48.700;9.210;2022-11-02T00:11:12;4.88;;;1.33;;
32138;SDS011;18644;48.700;9.210;2022-11-02T00:13:39;2.25;;;1.23;;
32138;SDS011;18644;48.700;9.210;2022-11-02T00:16:06;1.65;;;1.10;;
32138;SDS011;18644;48.700;9.210;2022-11-02T00:18:40;1.83;;;1.10;;
32138;SDS011;18644;48.700;9.210;2022-11-02T00:23:38;1.83;;;1.25;;
32138;SDS011;18644;48.700;9.210;2022-11-02T00:26:06;2.92;;;1.30;;
32138;SDS011;18644;48.700;9.210;2022-11-02T00:28:34;2.33;;;1.13;;
32138;SDS011;18644;48.700;9.210;2022-11-02T00:31:01;1.80;;;1.40;;
32138;SDS011;18644;48.700;9.210;2022-11-02T00:33:28;4.30;;;0.90;;
32138;SDS011;18644;48.700;9.210;2022-11-02T00:35:56;1.83;;;1.00;;
32138;SDS011;18644;48.700;9.210;2022-11-02T00:38:23;1.25;;;0.98;;
32138;SDS011;18644;48.700;9.210;2022-11-02T00:40:50;1.75;;;1.10;;
32138;SDS011;18644;48.700;9.210;2022-11-02T00:43:17;0.93;;;0.93;;
32138;SDS011;18644;48.700;9.210;2022-11-02T00:45:44;2.28;;;1.05;;
32138;SDS011;18644;48.700;9.210;2022-11-02T00:48:11;1.80;;;1.00;;
32138;SDS011;18644;48.700;9.210;2022-11-02T00:50:38;0.90;;;0.90;;
32138;SDS011;18644;48.700;9.210;2022-11-02T00:53:06;1.92;;;0.75;;
32138;SDS011;18644;48.700;9.210;2022-11-02T00:55:34;1.10;;;1.00;;
32138;SDS011;18644;48.700;9.210;2022-11-02T00:58:02;1.75;;;1.00;;
32138;SDS011;18644;48.700;9.210;2022-11-02T01:00:29;1.50;;;0.80;;
32138;SDS011;18644;48.700;9.210;2022-11-02T01:02:58;2.10;;;0.90;;
32138;SDS011;18644;48.700;9.210;2022-11-02T01:05:25;1.25;;;0.90;;
32138;SDS011;18644;48.700;9.210;2022-11-02T01:07:52;1.80;;;1.23;;
32138;SDS011;18644;48.700;9.210;2022-11-02T01:10:20;2.58;;;1.08;;
32138;SDS011;18644;48.700;9.210;2022-11-02T01:12:49;2.88;;;1.40;;
32138;SDS011;18644;48.700;9.210;2022-11-02T01:15:16;2.35;;;1.00;;
32138;SDS011;18644;48.700;9.210;2022-11-02T01:17:43;1.98;;;1.25;;
32138;SDS011;18644;48.700;9.210;2022-11-02T01:20:10;4.72;;;1.20;;
32138;SDS011;18644;48.700;9.210;2022-11-02T01:22:38;1.92;;;0.98;;
32138;SDS011;18644;48.700;9.210;2022-11-02T01:25:05;1.38;;;0.90;;
32138;SDS011;18644;48.700;9.210;2022-11-02T01:27:34;2.22;;;1.25;;
32138;SDS011;18644;48.700;9.210;2022-11-02T01:30:01;1.20;;;0.90;;
32138;SDS011;18644;48.700;9.210;2022-11-02T01:32:30;2.20;;;1.30;;
32138;SDS011;18644;48.700;9.210;2022-11-02T01:34:57;4.38;;;1.20;;
32138;SDS011;18644;48.700;9.210;2022-11-02T01:37:23;2.72;;;0.98;;
32138;SDS011;18644;48.700;9.210;2022-11-02T01:39:50;1.73;;;1.00;;
32138;SDS011;18644;48.700;9.210;2022-11-02T01:42:18;3.78;;;1.20;;
32138;SDS011;18644;48.700;9.210;2022-11-02T01:44:50;2.67;;;1.30;;
32138;SDS011;18644;48.700;9.210;2022-11-02T01:47:17;2.00;;;1.00;;
32138;SDS011;18644;48.700;9.210;2022-11-02T01:49:49;1.58;;;1.00;;
32138;SDS011;18644;48.700;9.210;2022-11-02T01:52:21;2.67;;;1.20;;
32138;SDS011;18644;48.700;9.210;2022-11-02T01:54:55;2.63;;;1.10;;
32138;SDS011;18644;48.700;9.210;2022-11-02T01:57:26;1.63;;;1.00;;
32138;SDS011;18644;48.700;9.210;2022-11-02T01:59:59;3.00;;;1.48;;
32138;SDS011;18644;48.700;9.210;2022-11-02T02:02:33;1.70;;;1.13;;
32138;SDS011;18644;48.700;9.210;2022-11-02T02:05:05;2.97;;;1.23;;
32138;SDS011;18644;48.700;9.210;2022-11-02T02:07:36;2.88;;;1.10;;
32138;SDS011;18644;48.700;9.210;2022-11-02T02:10:05;1.33;;;1.10;;
32138;SDS011;18644;48.700;9.210;2022-11-02T02:12:33;2.42;;;0.98;;
32138;SDS011;18644;48.700;9.210;2022-11-02T02:15:04;2.50;;;1.00;;
32138;SDS011;18644;48.700;9.210;2022-11-02T02:17:36;2.20;;;1.20;;
32138;SDS011;18644;48.700;9.210;2022-11-02T02:20:16;2.63;;;1.10;;
32138;SDS011;18644;48.700;9.210;2022-11-02T02:23:00;1.13;;;1.00;;
32138;SDS011;18644;48.700;9.210;2022-11-02T02:26:28;9.13;;;1.63;;
32138;SDS011;18644;48.700;9.210;2022-11-02T02:29:13;2.25;;;1.15;;
32138;SDS011;18644;48.700;9.210;2022-11-02T02:31:47;2.53;;;1.40;;
32138;SDS011;18644;48.700;9.210;2022-11-02T02:34:22;2.08;;;1.10;;
32138;SDS011;18644;48.700;9.210;2022-11-02T02:36:57;3.33;;;1.10;;
32138;SDS011;18644;48.700;9.210;2022-11-02T02:39:38;2.03;;;1.08;;
32138;SDS011;18644;48.700;9.210;2022-11-02T02:42:10;4.07;;;1.10;;
32138;SDS011;18644;48.700;9.210;2022-11-02T02:44:45;2.28;;;1.13;;
32138;SDS011;18644;48.700;9.210;2022-11-02T02:47:26;1.83;;;0.90;;
32138;SDS011;18644;48.700;9.210;2022-11-02T02:50:00;1.50;;;1.05;;
32138;SDS011;18644;48.700;9.210;2022-11-02T02:52:32;1.00;;;0.90;;
32138;SDS011;18644;48.700;9.210;2022-11-02T02:55:02;1.75;;;1.30;;
32138;SDS011;18644;48.700;9.210;2022-11-02T02:57:32;2.00;;;1.10;;
32138;SDS011;18644;48.700;9.210;2022-11-02T03:00:03;2.30;;;1.10;;
32138;SDS011;18644;48.700;9.210;2022-11-02T03:02:37;1.67;;;1.25;;
32138;SDS011;18644;48.700;9.210;2022-11-02T03:05:20;3.30;;;0.98;;
32138;SDS011;18644;48.700;9.210;2022-11-02T03:07:48;3.28;;;1.00;;
32138;SDS011;18644;48.700;9.210;2022-11-02T03:10:19;1.52;;;0.80;;
32138;SDS011;18644;48.700;9.210;2022-11-02T03:12:51;1.23;;;0.90;;
32138;SDS011;18644;48.700;9.210;2022-11-02T03:15:33;4.07;;;0.90;;
32138;SDS011;18644;48.700;9.210;2022-11-02T03:18:07;1.15;;;0.95;;
32138;SDS011;18644;48.700;9.210;2022-11-02T03:20:47;1.30;;;0.82;;
32138;SDS011;18644;48.700;9.210;2022-11-02T03:23:25;4.78;;;1.00;;
32138;SDS011;18644;48.700;9.210;2022-11-02T03:26:01;0.93;;;0.90;;
32138;SDS011;18644;48.700;9.210;2022-11-02T03:31:26;1.67;;;0.88;;
32138;SDS011;18644;48.700;9.210;2022-11-02T03:34:02;2.60;;;1.20;;
32138;SDS011;18644;48.700;9.210;2022-11-02T03:36:40;1.33;;;0.80;;
32138;SDS011;18644;48.700;9.210;2022-11-02T03:39:12;1.90;;;1.10;;
32138;SDS011;18644;48.700;9.210;2022-11-02T03:41:43;0.80;;;0.80;;
32138;SDS011;18644;48.700;9.210;2022-11-02T03:44:13;1.33;;;1.13;;
32138;SDS011;18644;48.700;9.210;2022-11-02T03:46:46;1.02;;;0.93;;
32138;SDS011;18644;48.700;9.210;2022-11-02T03:49:17;3.85;;;0.70;;
32138;SDS011;18644;48.700;9.210;2022-11-02T03:51:45;2.83;;;1.25;;
32138;SDS011;18644;48.700;9.210;2022-11-02T03:54:18;0.95;;;0.90;;
32138;SDS011;18644;48.700;9.210;2022-11-02T03:56:53;1.13;;;0.90;;
32138;SDS011;18644;48.700;9.210;2022-11-02T03:59:24;2.03;;;1.20;;
32138;SDS011;18644;48.700;9.210;2022-11-02T04:01:57;3.22;;;1.30;;
32138;SDS011;18644;48.700;9.210;2022-11-02T04:04:26;2.72;;;1.20;;
32138;SDS011;18644;48.700;9.210;2022-11-02T04:06:53;3.13;;;1.23;;
32138;SDS011;18644;48.700;9.210;2022-11-02T04:09:21;1.00;;;0.90;;
32138;SDS011;18644;48.700;9.210;2022-11-02T04:11:48;3.03;;;0.85;;
32138;SDS011;18644;48.700;9.210;2022-11-02T04:14:32;1.05;;;0.95;;
32138;SDS011;18644;48.700;9.210;2022-11-02T04:17:07;1.98;;;1.00;;
32138;SDS011;18644;48.700;9.210;2022-11-02T04:19:54;1.20;;;1.00;;
32138;SDS011;18644;48.700;9.210;2022-11-02T04:22:22;0.80;;;0.80;;
32138;SDS011;18644;48.700;9.210;2022-11-02T04:25:21;0.98;;;0.88;;
32138;SDS011;18644;48.700;9.210;2022-11-02T04:27:49;2.17;;;1.08;;
32138;SDS011;18644;48.700;9.210;2022-11-02T04:30:18;1.00;;;0.85;;
32138;SDS011;18644;48.700;9.210;2022-11-02T04:32:49;1.85;;;1.05;;
32138;SDS011;18644;48.700;9.210;2022-11-02T04:35:34;1.20;;;0.90;;
32138;SDS011;18644;48.700;9.210;2022-11-02T04:38:02;2.65;;;1.00;;
32138;SDS011;18644;48.700;9.210;2022-11-02T04:40:47;0.82;;;0.77;;
32138;SDS011;18644;48.700;9.210;2022-11-02T04:43:34;2.70;;;1.20;;
32138;SDS011;18644;48.700;9.210;2022-11-02T04:46:01;1.38;;;1.10;;
32138;SDS011;18644;48.700;9.210;2022-11-02T04:48:29;0.82;;;0.82;;
32138;SDS011;18644;48.700;9.210;2022-11-02T04:50:56;1.48;;;1.00;;
32138;SDS011;18644;48.700;9.210;2022-11-02T04:53:23;1.50;;;1.00;;
32138;SDS011;18644;48.700;9.210;2022-11-02T04:55:50;1.00;;;0.95;;
32138;SDS011;18644;48.700;9.210;2022-11-02T04:58:18;1.38;;;1.05;;
32138;SDS011;18644;48.700;9.210;2022-11-02T05:00:45;1.58;;;0.95;;
32138;SDS011;18644;48.700;9.210;2022-11-02T05:03:12;1.17;;;1.08;;
32138;SDS011;18644;48.700;9.210;2022-11-02T05:05:41;3.60;;;1.38;;
32138;SDS011;18644;48.700;9.210;2022-11-02T05:08:08;2.00;;;1.35;;
32138;SDS011;18644;48.700;9.210;2022-11-02T05:10:35;1.95;;;1.35;;
32138;SDS011;18644;48.700;9.210;2022-11-02T05:13:02;2.33;;;1.70;;
32138;SDS011;18644;48.700;9.210;2022-11-02T05:15:29;6.35;;;1.52;;
32138;SDS011;18644;48.700;9.210;2022-11-02T05:17:56;2.95;;;1.45;;
32138;SDS011;18644;48.700;9.210;2022-11-02T05:20:23;3.80;;;1.20;;
32138;SDS011;18644;48.700;9.210;2022-11-02T05:22:51;1.85;;;1.10;;
32138;SDS011;18644;48.700;9.210;2022-11-02T05:25:18;1.40;;;1.30;;
32138;SDS011;18644;48.700;9.210;2022-11-02T05:27:45;2.80;;;1.20;;
32138;SDS011;18644;48.700;9.210;2022-11-02T05:30:13;3.05;;;0.93;;
32138;SDS011;18644;48.700;9.210;2022-11-02T05:32:40;1.42;;;0.90;;
32138;SDS011;18644;48.700;9.210;2022-11-02T05:35:07;2.42;;;1.25;;
32138;SDS011;18644;48.700;9.210;2022-11-02T05:37:34;3.28;;;1.20;;
32138;SDS011;18644;48.700;9.210;2022-11-02T05:40:03;2.53;;;1.40;;
32138;SDS011;18644;48.700;9.210;2022-11-02T05:42:32;2.75;;;1.17;;
32138;SDS011;18644;48.700;9.210;2022-11-02T05:45:00;1.30;;;1.20;;
32138;SDS011;18644;48.700;9.210;2022-11-02T05:47:26;3.95;;;1.60;;
32138;SDS011;18644;48.700;9.210;2022-11-02T05:49:53;6.22;;;2.15;;
32138;SDS011;18644;48.700;9.210;2022-11-02T05:52:20;4.00;;;1.85;;
32138;SDS011;18644;48.700;9.210;2022-11-02T05:54:47;3.60;;;2.28;;
32138;SDS011;18644;48.700;9.210;2022-11-02T05:57:16;4.68;;;1.88;;
32138;SDS011;18644;48.700;9.210;2022-11-02T05:59:43;2.80;;;1.70;;
32138;SDS011;18644;48.700;9.210;2022-11-02T06:02:10;3.63;;;1.77;;
32138;SDS011;18644;48.700;9.210;2022-11-02T06:04:37;7.13;;;2.40;;
32138;SDS011;18644;48.700;9.210;2022-11-02T06:07:04;3.20;;;1.35;;
32138;SDS011;18644;48.700;9.210;2022-11-02T06:09:31;2.20;;;1.17;;
32138;SDS011;18644;48.700;9.210;2022-11-02T06:11:58;1.95;;;1.30;;
32138;SDS011;18644;48.700;9.210;2022-11-02T06:14:27;2.60;;;1.50;;
32138;SDS011;18644;48.700;9.210;2022-11-02T06:16:54;1.02;;;0.93;;
32138;SDS011;18644;48.700;9.210;2022-11-02T06:19:21;1.75;;;1.17;;
32138;SDS011;18644;48.700;9.210;2022-11-02T06:21:48;3.38;;;2.15;;
32138;SDS011;18644;48.700;9.210;2022-11-02T06:24:14;3.25;;;1.80;;
32138;SDS011;18644;48.700;9.210;2022-11-02T06:26:41;2.78;;;1.35;;
32138;SDS011;18644;48.700;9.210;2022-11-02T06:29:10;3.90;;;1.90;;
32138;SDS011;18644;48.700;9.210;2022-11-02T06:31:39;4.88;;;2.40;;
32138;SDS011;18644;48.700;9.210;2022-11-02T06:34:07;2.40;;;1.50;;
32138;SDS011;18644;48.700;9.210;2022-11-02T06:36:33;1.77;;;1.48;;
32138;SDS011;18644;48.700;9.210;2022-11-02T06:39:01;2.17;;;1.52;;
32138;SDS011;18644;48.700;9.210;2022-11-02T06:41:28;1.83;;;1.40;;
32138;SDS011;18644;48.700;9.210;2022-11-02T06:43:54;2.90;;;1.80;;
32138;SDS011;18644;48.700;9.210;2022-11-02T06:46:21;4.13;;;2.13;;
32138;SDS011;18644;48.700;9.210;2022-11-02T06:48:50;5.55;;;2.80;;
32138;SDS011;18644;48.700;9.210;2022-11-02T06:51:17;4.47;;;2.17;;
32138;SDS011;18644;48.700;9.210;2022-11-02T06:53:45;4.20;;;2.28;;
32138;SDS011;18644;48.700;9.210;2022-11-02T06:56:12;5.18;;;2.55;;
32138;SDS011;18644;48.700;9.210;2022-11-02T06:58:39;9.90;;;3.10;;
32138;SDS011;18644;48.700;9.210;2022-11-02T07:01:06;5.22;;;2.38;;
32138;SDS011;18644;48.700;9.210;2022-11-02T07:03:33;3.90;;;2.38;;
32138;SDS011;18644;48.700;9.210;2022-11-02T07:06:02;4.28;;;1.77;;
32138;SDS011;18644;48.700;9.210;2022-11-02T07:08:30;3.75;;;1.80;;
32138;SDS011;18644;48.700;9.210;2022-11-02T07:10:57;4.25;;;1.52;;
32138;SDS011;18644;48.700;9.210;2022-11-02T07:13:25;2.22;;;1.15;;
32138;SDS011;18644;48.700;9.210;2022-11-02T07:15:52;5.40;;;1.40;;
32138;SDS011;18644;48.700;9.210;2022-11-02T07:18:19;4.28;;;1.40;;
32138;SDS011;18644;48.700;9.210;2022-11-02T07:20:46;3.88;;;2.05;;
32138;SDS011;18644;48.700;9.210;2022-11-02T07:23:14;5.78;;;1.00;;
32138;SDS011;18644;48.700;9.210;2022-11-02T07:25:41;3.17;;;1.20;;
32138;SDS011;18644;48.700;9.210;2022-11-02T07:28:08;2.05;;;1.25;;
32138;SDS011;18644;48.700;9.210;2022-11-02T07:30:35;1.88;;;1.23;;
32138;SDS011;18644;48.700;9.210;2022-11-02T07:33:02;4.28;;;1.45;;
32138;SDS011;18644;48.700;9.210;2022-11-02T07:35:29;1.70;;;0.88;;
32138;SDS011;18644;48.700;9.210;2022-11-02T07:37:58;2.65;;;1.00;;
32138;SDS011;18644;48.700;9.210;2022-11-02T07:40:29;4.82;;;1.08;;
32138;SDS011;18644;48.700;9.210;2022-11-02T07:42:59;5.03;;;1.20;;
32138;SDS011;18644;48.700;9.210;2022-11-02T07:45:26;3.85;;;1.30;;
32138;SDS011;18644;48.700;9.210;2022-11-02T07:47:54;5.70;;;1.50;;
32138;SDS011;18644;48.700;9.210;2022-11-02T07:50:21;3.70;;;1.15;;
32138;SDS011;18644;48.700;9.210;2022-11-02T07:52:51;3.35;;;1.38;;
32138;SDS011;18644;48.700;9.210;2022-11-02T07:55:22;3.92;;;1.10;;
32138;SDS011;18644;48.700;9.210;2022-11-02T07:57:55;2.90;;;0.95;;
32138;SDS011;18644;48.700;9.210;2022-11-02T08:00:24;4.32;;;1.27;;
32138;SDS011;18644;48.700;9.210;2022-11-02T08:02:53;4.15;;;1.33;;
32138;SDS011;18644;48.700;9.210;2022-11-02T08:05:20;3.55;;;1.10;;
32138;SDS011;18644;48.700;9.210;2022-11-02T08:07:47;3.55;;;1.20;;
32138;SDS011;18644;48.700;9.210;2022-11-02T08:10:21;4.80;;;1.50;;
32138;SDS011;18644;48.700;9.210;2022-11-02T08:12:48;2.25;;;1.20;;
32138;SDS011;18644;48.700;9.210;2022-11-02T08:15:16;4.07;;;1.40;;
32138;SDS011;18644;48.700;9.210;2022-11-02T08:17:43;8.02;;;1.88;;
32138;SDS011;18644;48.700;9.210;2022-11-02T08:20:10;3.67;;;1.13;;
32138;SDS011;18644;48.700;9.210;2022-11-02T08:22:38;4.78;;;1.13;;
32138;SDS011;18644;48.700;9.210;2022-11-02T08:25:06;2.30;;;1.20;;
32138;SDS011;18644;48.700;9.210;2022-11-02T08:27:33;7.90;;;1.35;;
32138;SDS011;18644;48.700;9.210;2022-11-02T08:30:00;4.00;;;1.05;;
32138;SDS011;18644;48.700;9.210;2022-11-02T08:32:29;2.47;;;0.90;;
32138;SDS011;18644;48.700;9.210;2022-11-02T08:34:56;2.63;;;0.90;;
32138;SDS011;18644;48.700;9.210;2022-11-02T08:37:22;1.95;;;0.85;;
32138;SDS011;18644;48.700;9.210;2022-11-02T08:39:49;2.53;;;0.98;;
32138;SDS011;18644;48.700;9.210;2022-11-02T08:42:17;3.10;;;1.20;;
32138;SDS011;18644;48.700;9.210;2022-11-02T08:44:44;2.33;;;0.93;;
32138;SDS011;18644;48.700;9.210;2022-11-02T08:47:11;3.38;;;0.93;;
32138;SDS011;18644;48.700;9.210;2022-11-02T08:49:41;3.67;;;0.80;;
32138;SDS011;18644;48.700;9.210;2022-11-02T08:52:08;4.90;;;1.05;;
32138;SDS011;18644;48.700;9.210;2022-11-02T08:54:35;7.50;;;1.08;;
32138;SDS011;18644;48.700;9.210;2022-11-02T08:57:02;4.78;;;1.00;;
32138;SDS011;18644;48.700;9.210;2022-11-02T08:59:29;3.72;;;0.80;;
32138;SDS011;18644;48.700;9.210;2022-11-02T09:01:57;4.57;;;1.58;;
32138;SDS011;18644;48.700;9.210;2022-11-02T09:04:24;3.00;;;1.00;;
32138;SDS011;18644;48.700;9.210;2022-11-02T09:06:52;6.35;;;1.23;;
32138;SDS011;18644;48.700;9.210;2022-11-02T09:09:19;3.95;;;1.00;;
32138;SDS011;18644;48.700;9.210;2022-11-02T09:11:48;1.42;;;0.90;;
32138;SDS011;18644;48.700;9.210;2022-11-02T09:14:15;2.05;;;0.70;;
32138;SDS011;18644;48.700;9.210;2022-11-02T09:16:42;2.25;;;0.70;;
32138;SDS011;18644;48.700;9.210;2022-11-02T09:19:09;2.08;;;1.00;;
32138;SDS011;18644;48.700;9.210;2022-11-02T09:21:36;1.88;;;0.80;;
32138;SDS011;18644;48.700;9.210;2022-11-02T09:24:04;1.55;;;0.77;;
32138;SDS011;18644;48.700;9.210;2022-11-02T09:26:32;2.20;;;0.80;;
32138;SDS011;18644;48.700;9.210;2022-11-02T09:28:59;3.50;;;1.20;;
32138;SDS011;18644;48.700;9.210;2022-11-02T09:31:26;3.47;;;0.90;;
32138;SDS011;18644;48.700;9.210;2022-11-02T09:33:53;2.13;;;0.93;;
32138;SDS011;18644;48.700;9.210;2022-11-02T09:36:20;2.78;;;0.93;;
32138;SDS011;18644;48.700;9.210;2022-11-02T09:38:47;5.63;;;1.15;;
32138;SDS011;18644;48.700;9.210;2022-11-02T09:41:16;5.75;;;1.23;;
32138;SDS011;18644;48.700;9.210;2022-11-02T09:43:56;3.15;;;1.00;;
32138;SDS011;18644;48.700;9.210;2022-11-02T09:46:30;3.22;;;0.95;;
32138;SDS011;18644;48.700;9.210;2022-11-02T09:49:00;3.35;;;1.17;;
32138;SDS011;18644;48.700;9.210;2022-11-02T09:54:05;7.93;;;1.10;;
32138;SDS011;18644;48.700;9.210;2022-11-02T09:56:39;2.65;;;0.73;;
32138;SDS011;18644;48.700;9.210;2022-11-02T09:59:10;2.00;;;0.90;;
32138;SDS011;18644;48.700;9.210;2022-11-02T10:01:42;4.63;;;1.30;;
32138;SDS011;18644;48.700;9.210;2022-11-02T10:04:31;2.03;;;0.73;;
32138;SDS011;18644;48.700;9.210;2022-11-02T10:07:28;2.72;;;1.10;;
32138;SDS011;18644;48.700;9.210;2022-11-02T10:10:10;1.95;;;0.82;;
32138;SDS011;18644;48.700;9.210;2022-11-02T10:12:44;2.17;;;1.47;;
32138;SDS011;18644;48.700;9.210;2022-11-02T10:15:22;3.85;;;1.40;;
32138;SDS011;18644;48.700;9.210;2022-11-02T10:17:55;3.75;;;1.17;;
32138;SDS011;18644;48.700;9.210;2022-11-02T10:20:26;7.35;;;1.17;;
32138;SDS011;18644;48.700;9.210;2022-11-02T10:22:58;2.83;;;1.27;;
32138;SDS011;18644;48.700;9.210;2022-11-02T10:25:29;6.95;;;0.93;;
32138;SDS011;18644;48.700;9.210;2022-11-02T10:27:58;6.50;;;1.23;;
32138;SDS011;18644;48.700;9.210;2022-11-02T10:30:30;1.52;;;0.80;;
32138;SDS011;18644;48.700;9.210;2022-11-02T10:32:58;2.55;;;0.93;;
32138;SDS011;18644;48.700;9.210;2022-11-02T10:35:26;4.07;;;1.27;;
32138;SDS011;18644;48.700;9.210;2022-11-02T10:38:06;3.65;;;1.00;;
32138;SDS011;18644;48.700;9.210;2022-11-02T10:40:45;3.58;;;1.08;;
32138;SDS011;18644;48.700;9.210;2022-11-02T10:43:30;3.28;;;0.80;;
32138;SDS011;18644;48.700;9.210;2022-11-02T10:46:17;5.28;;;1.73;;
32138;SDS011;18644;48.700;9.210;2022-11-02T10:48:56;3.35;;;1.02;;
32138;SDS011;18644;48.700;9.210;2022-11-02T10:51:30;3.40;;;0.98;;
32138;SDS011;18644;48.700;9.210;2022-11-02T10:53:58;1.15;;;0.70;;
32138;SDS011;18644;48.700;9.210;2022-11-02T10:56:28;2.92;;;1.00;;
32138;SDS011;18644;48.700;9.210;2022-11-02T10:59:01;5.32;;;1.48;;
32138;SDS011;18644;48.700;9.210;2022-11-02T11:01:35;4.25;;;1.23;;
32138;SDS011;18644;48.700;9.210;2022-11-02T11:04:03;2.58;;;0.82;;
32138;SDS011;18644;48.700;9.210;2022-11-02T11:06:33;4.78;;;1.20;;
32138;SDS011;18644;48.700;9.210;2022-11-02T11:09:04;1.52;;;0.82;;
32138;SDS011;18644;48.700;9.210;2022-11-02T11:11:33;2.55;;;0.80;;
32138;SDS011;18644;48.700;9.210;2022-11-02T11:14:05;1.42;;;0.90;;
32138;SDS011;18644;48.700;9.210;2022-11-02T11:16:41;2.00;;;1.13;;
32138;SDS011;18644;48.700;9.210;2022-11-02T11:19:20;4.22;;;1.30;;
32138;SDS011;18644;48.700;9.210;2022-11-02T11:21:49;5.78;;;1.30;;
32138;SDS011;18644;48.700;9.210;2022-11-02T11:24:21;4.20;;;1.02;;
32138;SDS011;18644;48.700;9.210;2022-11-02T11:27:01;2.75;;;1.10;;
32138;SDS011;18644;48.700;9.210;2022-11-02T11:29:44;1.33;;;0.80;;
32138;SDS011;18644;48.700;9.210;2022-11-02T11:32:15;4.13;;;1.10;;
32138;SDS011;18644;48.700;9.210;2022-11-02T11:34:44;3.55;;;0.80;;
32138;SDS011;18644;48.700;9.210;2022-11-02T11:37:22;2.10;;;0.70;;
32138;SDS011;18644;48.700;9.210;2022-11-02T11:39:51;3.97;;;1.10;;
32138;SDS011;18644;48.700;9.210;2022-11-02T11:42:23;5.20;;;1.77;;
32138;SDS011;18644;48.700;9.210;2022-11-02T11:44:57;2.05;;;0.90;;
32138;SDS011;18644;48.700;9.210;2022-11-02T11:47:29;1.58;;;0.77;;
32138;SDS011;18644;48.700;9.210;2022-11-02T11:50:00;2.75;;;0.90;;
32138;SDS011;18644;48.700;9.210;2022-11-02T11:52:31;4.77;;;1.10;;
32138;SDS011;18644;48.700;9.210;2022-11-02T11:55:00;14.98;;;1.58;;
32138;SDS011;18644;48.700;9.210;2022-11-02T11:57:44;11.57;;;1.80;;
32138;SDS011;18644;48.700;9.210;2022-11-02T12:00:25;5.85;;;1.20;;
32138;SDS011;18644;48.700;9.210;2022-11-02T12:03:00;10.73;;;1.40;;
32138;SDS011;18644;48.700;9.210;2022-11-02T12:05:30;2.03;;;0.90;;
32138;SDS011;18644;48.700;9.210;2022-11-02T12:08:06;2.03;;;0.90;;
32138;SDS011;18644;48.700;9.210;2022-11-02T12:10:51;2.90;;;0.93;;
32138;SDS011;18644;48.700;9.210;2022-11-02T12:13:43;6.68;;;1.10;;
32138;SDS011;18644;48.700;9.210;2022-11-02T12:16:39;4.63;;;1.20;;
32138;SDS011;18644;48.700;9.210;2022-11-02T12:19:25;6.65;;;1.15;;
32138;SDS011;18644;48.700;9.210;2022-11-02T12:22:06;2.30;;;1.15;;
32138;SDS011;18644;48.700;9.210;2022-11-02T12:24:45;2.63;;;1.00;;
32138;SDS011;18644;48.700;9.210;2022-11-02T12:27:38;8.65;;;1.48;;
32138;SDS011;18644;48.700;9.210;2022-11-02T12:30:16;2.85;;;1.15;;
32138;SDS011;18644;48.700;9.210;2022-11-02T12:32:52;1.77;;;0.93;;
32138;SDS011;18644;48.700;9.210;2022-11-02T12:35:34;11.85;;;2.25;;
32138;SDS011;18644;48.700;9.210;2022-11-02T12:41:20;3.40;;;1.00;;
32138;SDS011;18644;48.700;9.210;2022-11-02T12:44:05;7.00;;;1.05;;
32138;SDS011;18644;48.700;9.210;2022-11-02T12:46:52;4.97;;;1.00;;
32138;SDS011;18644;48.700;9.210;2022-11-02T12:49:38;1.98;;;0.80;;
32138;SDS011;18644;48.700;9.210;2022-11-02T12:52:17;3.17;;;1.00;;
32138;SDS011;18644;48.700;9.210;2022-11-02T12:54:59;4.20;;;1.42;;
32138;SDS011;18644;48.700;9.210;2022-11-02T12:57:30;4.70;;;1.02;;
32138;SDS011;18644;48.700;9.210;2022-11-02T13:00:03;1.30;;;0.65;;
32138;SDS011;18644;48.700;9.210;2022-11-02T13:02:36;1.52;;;0.80;;
32138;SDS011;18644;48.700;9.210;2022-11-02T13:05:14;2.88;;;0.93;;
32138;SDS011;18644;48.700;9.210;2022-11-02T13:07:44;3.77;;;1.00;;
32138;SDS011;18644;48.700;9.210;2022-11-02T13:10:18;3.67;;;1.00;;
32138;SDS011;18644;48.700;9.210;2022-11-02T13:12:50;3.47;;;1.50;;
32138;SDS011;18644;48.700;9.210;2022-11-02T13:15:21;3.13;;;0.98;;
32138;SDS011;18644;48.700;9.210;2022-11-02T13:17:52;2.72;;;0.90;;
32138;SDS011;18644;48.700;9.210;2022-11-02T13:20:25;2.83;;;1.15;;
32138;SDS011;18644;48.700;9.210;2022-11-02T13:22:55;2.65;;;1.15;;
32138;SDS011;18644;48.700;9.210;2022-11-02T13:25:30;3.25;;;1.05;;
32138;SDS011;18644;48.700;9.210;2022-11-02T13:28:02;2.50;;;0.77;;
32138;SDS011;18644;48.700;9.210;2022-11-02T13:30:37;2.80;;;1.10;;
32138;SDS011;18644;48.700;9.210;2022-11-02T13:33:07;2.60;;;1.30;;
32138;SDS011;18644;48.700;9.210;2022-11-02T13:35:42;1.98;;;0.70;;
32138;SDS011;18644;48.700;9.210;2022-11-02T13:38:13;1.48;;;0.90;;
32138;SDS011;18644;48.700;9.210;2022-11-02T13:40:53;2.85;;;0.90;;
32138;SDS011;18644;48.700;9.210;2022-11-02T13:43:40;1.35;;;0.88;;
32138;SDS011;18644;48.700;9.210;2022-11-02T13:46:28;5.82;;;1.30;;
32138;SDS011;18644;48.700;9.210;2022-11-02T13:49:14;5.90;;;0.90;;
32138;SDS011;18644;48.700;9.210;2022-11-02T13:51:46;2.85;;;1.00;;
32138;SDS011;18644;48.700;9.210;2022-11-02T13:54:17;4.78;;;0.80;;
32138;SDS011;18644;48.700;9.210;2022-11-02T13:56:50;2.88;;;1.00;;
32138;SDS011;18644;48.700;9.210;2022-11-02T13:59:21;2.08;;;0.82;;
32138;SDS011;18644;48.700;9.210;2022-11-02T14:01:52;2.42;;;0.90;;
32138;SDS011;18644;48.700;9.210;2022-11-02T14:04:20;1.73;;;0.98;;
32138;SDS011;18644;48.700;9.210;2022-11-02T14:06:51;3.38;;;0.93;;
32138;SDS011;18644;48.700;9.210;2022-11-02T14:09:23;3.35;;;0.95;;
32138;SDS011;18644;48.700;9.210;2022-11-02T14:12:17;2.65;;;0.90;;
32138;SDS011;18644;48.700;9.210;2022-11-02T14:27:27;1.40;;;0.90;;
32138;SDS011;18644;48.700;9.210;2022-11-02T14:29:55;1.48;;;0.75;;
32138;SDS011;18644;48.700;9.210;2022-11-02T14:32:27;3.97;;;1.63;;
32138;SDS011;18644;48.700;9.210;2022-11-02T14:35:27;4.43;;;1.15;;
32138;SDS011;18644;48.700;9.210;2022-11-02T14:38:13;4.07;;;1.00;;
32138;SDS011;18644;48.700;9.210;2022-11-02T14:41:43;3.05;;;1.00;;
32138;SDS011;18644;48.700;9.210;2022-11-02T14:44:32;4.35;;;1.15;;
32138;SDS011;18644;48.700;9.210;2022-11-02T14:47:31;5.85;;;1.45;;
32138;SDS011;18644;48.700;9.210;2022-11-02T14:50:04;2.40;;;0.88;;
32138;SDS011;18644;48.700;9.210;2022-11-02T14:52:40;2.05;;;0.70;;
32138;SDS011;18644;48.700;9.210;2022-11-02T14:55:20;4.90;;;1.17;;
32138;SDS011;18644;48.700;9.210;2022-11-02T14:57:52;4.47;;;1.27;;
32138;SDS011;18644;48.700;9.210;2022-11-02T15:00:24;2.95;;;0.82;;
32138;SDS011;18644;48.700;9.210;2022-11-02T15:02:57;2.45;;;0.80;;
32138;SDS011;18644;48.700;9.210;2022-11-02T15:05:25;3.05;;;1.00;;
32138;SDS011;18644;48.700;9.210;2022-11-02T15:07:56;3.22;;;1.13;;
32138;SDS011;18644;48.700;9.210;2022-11-02T15:10:37;3.92;;;0.98;;
32138;SDS011;18644;48.700;9.210;2022-11-02T15:16:16;3.08;;;0.80;;
32138;SDS011;18644;48.700;9.210;2022-11-02T15:18:48;1.90;;;0.80;;
32138;SDS011;18644;48.700;9.210;2022-11-02T15:21:28;1.88;;;1.00;;
32138;SDS011;18644;48.700;9.210;2022-11-02T15:24:00;4.25;;;1.33;;
32138;SDS011;18644;48.700;9.210;2022-11-02T15:26:40;3.55;;;1.38;;
32138;SDS011;18644;48.700;9.210;2022-11-02T15:29:15;4.65;;;1.40;;
32138;SDS011;18644;48.700;9.210;2022-11-02T15:32:02;6.03;;;1.73;;
32138;SDS011;18644;48.700;9.210;2022-11-02T15:34:34;5.38;;;2.00;;
32138;SDS011;18644;48.700;9.210;2022-11-02T15:37:06;6.13;;;2.10;;
32138;SDS011;18644;48.700;9.210;2022-11-02T15:39:46;4.43;;;1.80;;
32138;SDS011;18644;48.700;9.210;2022-11-02T15:42:15;2.97;;;1.25;;
32138;SDS011;18644;48.700;9.210;2022-11-02T15:47:53;3.13;;;1.25;;